sensor_id;sensor_type;location;lat;lon;timestamp;temperature;humidity
18444;DHT22;9350;53.176;8.194;2023-02-22T00:00:11;9.60;99.90
18444;DHT22;9350;53.176;8.194;2023-02-22T00:02:48;9.70;99.90
18444;DHT22;9350;53.176;8.194;2023-02-22T00:05:16;9.70;99.90
18444;DHT22;9350;53.176;8.194;2023-02-22T00:07:45;9.50;99.90
18444;DHT22;9350;53.176;8.194;2023-02-22T00:10:14;9.60;99.90
18444;DHT22;9350;53.176;8.194;2023-02-22T00:12:45;9.60;99.90
18444;DHT22;9350;53.176;8.194;2023-02-22T00:15:13;9.60;99.90
18444;DHT22;9350;53.176;8.194;2023-02-22T00:17:40;9.60;99.90
18444;DHT22;9350;53.176;8.194;2023-02-22T00:20:08;9.60;99.90
18444;DHT22;9350;53.176;8.194;2023-02-22T00:22:39;9.60;99.90
18444;DHT22;9350;53.176;8.194;2023-02-22T00:25:06;9.60;99.90
18444;DHT22;9350;53.176;8.194;2023-02-22T00:27:34;9.60;99.90
18444;DHT22;9350;53.176;8.194;2023-02-22T00:30:02;9.60;99.90
18444;DHT22;9350;53.176;8.194;2023-02-22T00:32:28;9.60;99.90
18444;DHT22;9350;53.176;8.194;2023-02-22T00:34:55;9.60;99.90
18444;DHT22;9350;53.176;8.194;2023-02-22T00:37:22;9.60;99.90
18444;DHT22;9350;53.176;8.194;2023-02-22T00:39:50;9.60;99.90
18444;DHT22;9350;53.176;8.194;2023-02-22T00:42:19;9.60;99.90
18444;DHT22;9350;53.176;8.194;2023-02-22T00:44:47;9.60;99.90
18444;DHT22;9350;53.176;8.194;2023-02-22T00:47:14;9.60;99.90
18444;DHT22;9350;53.176;8.194;2023-02-22T00:49:41;9.60;99.90
18444;DHT22;9350;53.176;8.194;2023-02-22T00:52:07;9.60;99.90
18444;DHT22;9350;53.176;8.194;2023-02-22T00:54:35;9.60;99.90
18444;DHT22;9350;53.176;8.194;2023-02-22T00:57:02;9.60;99.90
18444;DHT22;9350;53.176;8.194;2023-02-22T00:59:29;9.50;99.90
18444;DHT22;9350;53.176;8.194;2023-02-22T01:01:58;9.60;99.90
18444;DHT22;9350;53.176;8.194;2023-02-22T01:04:24;9.60;99.90
18444;DHT22;9350;53.176;8.194;2023-02-22T01:06:51;9.60;99.90
18444;DHT22;9350;53.176;8.194;2023-02-22T01:09:21;9.60;99.90
18444;DHT22;9350;53.176;8.194;2023-02-22T01:11:51;9.80;99.90
18444;DHT22;9350;53.176;8.194;2023-02-22T01:14:19;9.60;99.90
18444;DHT22;9350;53.176;8.194;2023-02-22T01:16:47;9.60;99.90
18444;DHT22;9350;53.176;8.194;2023-02-22T01:19:16;9.60;99.90
18444;DHT22;9350;53.176;8.194;2023-02-22T01:21:43;9.60;99.90
18444;DHT22;9350;53.176;8.194;2023-02-22T01:24:10;9.60;99.90
18444;DHT22;9350;53.176;8.194;2023-02-22T01:26:40;9.60;99.90
18444;DHT22;9350;53.176;8.194;2023-02-22T01:29:07;9.60;99.90
18444;DHT22;9350;53.176;8.194;2023-02-22T01:31:34;9.70;99.90
18444;DHT22;9350;53.176;8.194;2023-02-22T01:34:01;9.50;99.90
18444;DHT22;9350;53.176;8.194;2023-02-22T01:36:29;9.60;99.90
18444;DHT22;9350;53.176;8.194;2023-02-22T01:38:56;9.60;99.90
18444;DHT22;9350;53.176;8.194;2023-02-22T01:41:22;9.50;99.90
18444;DHT22;9350;53.176;8.194;2023-02-22T01:43:49;9.60;99.90
18444;DHT22;9350;53.176;8.194;2023-02-22T01:46:20;9.60;99.90
18444;DHT22;9350;53.176;8.194;2023-02-22T01:48:50;9.60;99.90
18444;DHT22;9350;53.176;8.194;2023-02-22T01:51:22;9.60;99.90
18444;DHT22;9350;53.176;8.194;2023-02-22T01:53:53;9.50;99.90
18444;DHT22;9350;53.176;8.194;2023-02-22T01:56:23;9.50;99.90
18444;DHT22;9350;53.176;8.194;2023-02-22T01:58:54;9.50;99.90
18444;DHT22;9350;53.176;8.194;2023-02-22T02:01:24;9.50;99.90
18444;DHT22;9350;53.176;8.194;2023-02-22T02:03:55;9.60;99.90
18444;DHT22;9350;53.176;8.194;2023-02-22T02:06:23;9.50;99.90
18444;DHT22;9350;53.176;8.194;2023-02-22T02:08:58;9.50;99.90
18444;DHT22;9350;53.176;8.194;2023-02-22T02:11:28;9.40;99.90
18444;DHT22;9350;53.176;8.194;2023-02-22T02:13:56;9.60;99.90
18444;DHT22;9350;53.176;8.194;2023-02-22T02:16:25;9.50;99.90
18444;DHT22;9350;53.176;8.194;2023-02-22T02:18:53;9.50;99.90
18444;DHT22;9350;53.176;8.194;2023-02-22T02:21:43;9.50;99.90
18444;DHT22;9350;53.176;8.194;2023-02-22T02:27:45;9.50;99.90
18444;DHT22;9350;53.176;8.194;2023-02-22T02:30:42;9.40;99.90
18444;DHT22;9350;53.176;8.194;2023-02-22T02:33:15;9.50;99.90
18444;DHT22;9350;53.176;8.194;2023-02-22T02:35:52;9.50;99.90
18444;DHT22;9350;53.176;8.194;2023-02-22T02:38:29;9.50;99.90
18444;DHT22;9350;53.176;8.194;2023-02-22T02:41:02;9.50;99.90
18444;DHT22;9350;53.176;8.194;2023-02-22T02:43:32;9.50;99.90
18444;DHT22;9350;53.176;8.194;2023-02-22T02:46:06;9.60;99.90
18444;DHT22;9350;53.176;8.194;2023-02-22T02:48:37;9.50;99.90
18444;DHT22;9350;53.176;8.194;2023-02-22T02:51:10;9.50;99.90
18444;DHT22;9350;53.176;8.194;2023-02-22T02:53:43;9.50;99.90
18444;DHT22;9350;53.176;8.194;2023-02-22T02:56:10;9.60;99.90
18444;DHT22;9350;53.176;8.194;2023-02-22T02:58:46;9.50;99.90
18444;DHT22;9350;53.176;8.194;2023-02-22T03:01:21;9.50;99.90
18444;DHT22;9350;53.176;8.194;2023-02-22T03:07:06;9.50;99.90
18444;DHT22;9350;53.176;8.194;2023-02-22T03:09:40;9.50;99.90
18444;DHT22;9350;53.176;8.194;2023-02-22T03:12:18;9.50;99.90
18444;DHT22;9350;53.176;8.194;2023-02-22T03:14:54;9.40;99.90
18444;DHT22;9350;53.176;8.194;2023-02-22T03:17:30;9.40;99.90
18444;DHT22;9350;53.176;8.194;2023-02-22T03:20:06;9.30;99.90
18444;DHT22;9350;53.176;8.194;2023-02-22T03:22:38;9.40;99.90
18444;DHT22;9350;53.176;8.194;2023-02-22T03:25:14;9.40;99.90
18444;DHT22;9350;53.176;8.194;2023-02-22T03:27:45;9.40;99.90
18444;DHT22;9350;53.176;8.194;2023-02-22T03:30:19;9.40;99.90
18444;DHT22;9350;53.176;8.194;2023-02-22T03:32:52;9.40;99.90
18444;DHT22;9350;53.176;8.194;2023-02-22T03:35:23;9.40;99.90
18444;DHT22;9350;53.176;8.194;2023-02-22T03:37:54;9.40;99.90
18444;DHT22;9350;53.176;8.194;2023-02-22T03:40:28;9.40;99.90
18444;DHT22;9350;53.176;8.194;2023-02-22T03:43:00;9.40;99.90
18444;DHT22;9350;53.176;8.194;2023-02-22T03:45:28;9.30;99.90
18444;DHT22;9350;53.176;8.194;2023-02-22T03:48:00;9.30;99.90
18444;DHT22;9350;53.176;8.194;2023-02-22T03:50:33;9.40;99.90
18444;DHT22;9350;53.176;8.194;2023-02-22T03:53:01;9.30;99.90
18444;DHT22;9350;53.176;8.194;2023-02-22T03:55:29;9.30;99.90
18444;DHT22;9350;53.176;8.194;2023-02-22T03:57:58;9.30;99.90
18444;DHT22;9350;53.176;8.194;2023-02-22T04:00:28;9.40;99.90
18444;DHT22;9350;53.176;8.194;2023-02-22T04:02:55;9.40;99.90
18444;DHT22;9350;53.176;8.194;2023-02-22T04:05:22;9.40;99.90
18444;DHT22;9350;53.176;8.194;2023-02-22T04:07:51;9.40;99.90
18444;DHT22;9350;53.176;8.194;2023-02-22T04:10:18;9.40;99.90
18444;DHT22;9350;53.176;8.194;2023-02-22T04:12:45;9.40;99.90
18444;DHT22;9350;53.176;8.194;2023-02-22T04:15:14;9.40;99.90
18444;DHT22;9350;53.176;8.194;2023-02-22T04:17:41;9.40;99.90
18444;DHT22;9350;53.176;8.194;2023-02-22T04:20:09;9.40;99.90
18444;DHT22;9350;53.176;8.194;2023-02-22T04:22:38;9.30;99.90
18444;DHT22;9350;53.176;8.194;2023-02-22T04:25:06;9.40;99.90
18444;DHT22;9350;53.176;8.194;2023-02-22T04:27:33;9.40;99.90
18444;DHT22;9350;53.176;8.194;2023-02-22T04:30:00;9.30;99.90
18444;DHT22;9350;53.176;8.194;2023-02-22T04:32:27;9.40;99.90
18444;DHT22;9350;53.176;8.194;2023-02-22T04:34:53;9.40;99.90
18444;DHT22;9350;53.176;8.194;2023-02-22T04:37:20;9.30;99.90
18444;DHT22;9350;53.176;8.194;2023-02-22T04:39:47;9.30;99.90
18444;DHT22;9350;53.176;8.194;2023-02-22T04:42:15;9.40;99.90
18444;DHT22;9350;53.176;8.194;2023-02-22T04:44:42;9.30;99.90
18444;DHT22;9350;53.176;8.194;2023-02-22T04:47:09;9.30;99.90
18444;DHT22;9350;53.176;8.194;2023-02-22T04:49:35;9.30;99.90
18444;DHT22;9350;53.176;8.194;2023-02-22T04:52:02;9.30;99.90
18444;DHT22;9350;53.176;8.194;2023-02-22T04:54:29;9.30;99.90
18444;DHT22;9350;53.176;8.194;2023-02-22T04:56:56;9.30;99.90
18444;DHT22;9350;53.176;8.194;2023-02-22T04:59:24;9.30;99.90
18444;DHT22;9350;53.176;8.194;2023-02-22T05:01:51;9.30;99.90
18444;DHT22;9350;53.176;8.194;2023-02-22T05:04:18;9.30;99.90
18444;DHT22;9350;53.176;8.194;2023-02-22T05:06:46;9.30;99.90
18444;DHT22;9350;53.176;8.194;2023-02-22T05:09:13;9.30;99.90
18444;DHT22;9350;53.176;8.194;2023-02-22T05:11:40;9.30;99.90
18444;DHT22;9350;53.176;8.194;2023-02-22T05:14:06;9.30;99.90
18444;DHT22;9350;53.176;8.194;2023-02-22T05:16:35;9.30;99.90
18444;DHT22;9350;53.176;8.194;2023-02-22T05:19:02;9.30;99.90
18444;DHT22;9350;53.176;8.194;2023-02-22T05:21:28;9.30;99.90
18444;DHT22;9350;53.176;8.194;2023-02-22T05:23:55;9.30;99.90
18444;DHT22;9350;53.176;8.194;2023-02-22T05:26:23;9.30;99.90
18444;DHT22;9350;53.176;8.194;2023-02-22T05:28:49;9.30;99.90
18444;DHT22;9350;53.176;8.194;2023-02-22T05:31:16;9.30;99.90
18444;DHT22;9350;53.176;8.194;2023-02-22T05:33:44;9.30;99.90
18444;DHT22;9350;53.176;8.194;2023-02-22T05:36:11;9.30;99.90
18444;DHT22;9350;53.176;8.194;2023-02-22T05:38:38;9.30;99.90
18444;DHT22;9350;53.176;8.194;2023-02-22T05:41:08;9.30;99.90
18444;DHT22;9350;53.176;8.194;2023-02-22T05:43:35;9.30;99.90
18444;DHT22;9350;53.176;8.194;2023-02-22T05:46:02;9.30;99.90
18444;DHT22;9350;53.176;8.194;2023-02-22T05:48:29;9.20;99.90
18444;DHT22;9350;53.176;8.194;2023-02-22T05:50:58;9.20;99.90
18444;DHT22;9350;53.176;8.194;2023-02-22T05:53:25;9.30;99.90
18444;DHT22;9350;53.176;8.194;2023-02-22T05:55:52;9.20;99.90
18444;DHT22;9350;53.176;8.194;2023-02-22T05:58:19;9.20;99.90
18444;DHT22;9350;53.176;8.194;2023-02-22T06:00:46;9.30;99.90
18444;DHT22;9350;53.176;8.194;2023-02-22T06:03:13;9.20;99.90
18444;DHT22;9350;53.176;8.194;2023-02-22T06:05:40;9.30;99.90
18444;DHT22;9350;53.176;8.194;2023-02-22T06:08:08;9.20;99.90
18444;DHT22;9350;53.176;8.194;2023-02-22T06:10:35;9.20;99.90
18444;DHT22;9350;53.176;8.194;2023-02-22T06:13:03;9.10;99.90
18444;DHT22;9350;53.176;8.194;2023-02-22T06:15:30;9.20;99.90
18444;DHT22;9350;53.176;8.194;2023-02-22T06:17:57;9.30;99.90
18444;DHT22;9350;53.176;8.194;2023-02-22T06:20:26;9.20;99.90
18444;DHT22;9350;53.176;8.194;2023-02-22T06:22:54;9.20;99.90
18444;DHT22;9350;53.176;8.194;2023-02-22T06:25:25;9.30;99.90
18444;DHT22;9350;53.176;8.194;2023-02-22T06:27:52;9.20;99.90
18444;DHT22;9350;53.176;8.194;2023-02-22T06:30:21;9.20;99.90
18444;DHT22;9350;53.176;8.194;2023-02-22T06:32:48;9.20;99.90
18444;DHT22;9350;53.176;8.194;2023-02-22T06:35:15;9.20;99.90
18444;DHT22;9350;53.176;8.194;2023-02-22T06:37:42;9.20;99.90
18444;DHT22;9350;53.176;8.194;2023-02-22T06:40:10;9.20;99.90
18444;DHT22;9350;53.176;8.194;2023-02-22T06:42:38;9.20;99.90
18444;DHT22;9350;53.176;8.194;2023-02-22T06:45:06;9.20;99.90
18444;DHT22;9350;53.176;8.194;2023-02-22T06:47:37;9.20;99.90
18444;DHT22;9350;53.176;8.194;2023-02-22T06:50:04;9.20;99.90
18444;DHT22;9350;53.176;8.194;2023-02-22T06:52:31;9.20;99.90
18444;DHT22;9350;53.176;8.194;2023-02-22T06:54:58;9.10;99.90
18444;DHT22;9350;53.176;8.194;2023-02-22T06:57:24;9.10;99.90
18444;DHT22;9350;53.176;8.194;2023-02-22T06:59:52;9.20;99.90
18444;DHT22;9350;53.176;8.194;2023-02-22T07:02:19;9.20;99.90
18444;DHT22;9350;53.176;8.194;2023-02-22T07:04:46;9.20;99.90
18444;DHT22;9350;53.176;8.194;2023-02-22T07:07:13;9.20;99.90
18444;DHT22;9350;53.176;8.194;2023-02-22T07:09:39;9.20;99.90
18444;DHT22;9350;53.176;8.194;2023-02-22T07:12:06;9.20;99.90
18444;DHT22;9350;53.176;8.194;2023-02-22T07:14:33;9.20;99.90
18444;DHT22;9350;53.176;8.194;2023-02-22T07:17:01;9.30;99.90
18444;DHT22;9350;53.176;8.194;2023-02-22T07:19:28;9.20;99.90
18444;DHT22;9350;53.176;8.194;2023-02-22T07:21:55;9.20;99.90
18444;DHT22;9350;53.176;8.194;2023-02-22T07:24:24;9.30;99.90
18444;DHT22;9350;53.176;8.194;2023-02-22T07:26:51;9.20;99.90
18444;DHT22;9350;53.176;8.194;2023-02-22T07:29:18;9.20;99.90
18444;DHT22;9350;53.176;8.194;2023-02-22T07:31:47;9.20;99.90
18444;DHT22;9350;53.176;8.194;2023-02-22T07:34:15;9.20;99.90
18444;DHT22;9350;53.176;8.194;2023-02-22T07:36:42;9.20;99.90
18444;DHT22;9350;53.176;8.194;2023-02-22T07:39:09;9.20;99.90
18444;DHT22;9350;53.176;8.194;2023-02-22T07:41:36;9.20;99.90
18444;DHT22;9350;53.176;8.194;2023-02-22T07:44:03;9.20;99.90
18444;DHT22;9350;53.176;8.194;2023-02-22T07:46:29;9.20;99.90
18444;DHT22;9350;53.176;8.194;2023-02-22T07:48:56;9.10;99.90
18444;DHT22;9350;53.176;8.194;2023-02-22T07:51:24;9.10;99.90
18444;DHT22;9350;53.176;8.194;2023-02-22T07:53:51;9.20;99.90
18444;DHT22;9350;53.176;8.194;2023-02-22T07:56:18;9.20;99.90
18444;DHT22;9350;53.176;8.194;2023-02-22T07:58:45;9.20;99.90
18444;DHT22;9350;53.176;8.194;2023-02-22T08:01:11;9.10;99.90
18444;DHT22;9350;53.176;8.194;2023-02-22T08:03:38;9.10;99.90
18444;DHT22;9350;53.176;8.194;2023-02-22T08:06:06;9.20;99.90
18444;DHT22;9350;53.176;8.194;2023-02-22T08:08:35;9.20;99.90
18444;DHT22;9350;53.176;8.194;2023-02-22T08:11:02;9.20;99.90
18444;DHT22;9350;53.176;8.194;2023-02-22T08:13:28;9.30;99.90
18444;DHT22;9350;53.176;8.194;2023-02-22T08:15:55;9.40;99.90
18444;DHT22;9350;53.176;8.194;2023-02-22T08:18:23;9.30;99.90
18444;DHT22;9350;53.176;8.194;2023-02-22T08:20:51;9.30;99.90
18444;DHT22;9350;53.176;8.194;2023-02-22T08:23:20;9.30;99.90
18444;DHT22;9350;53.176;8.194;2023-02-22T08:25:50;9.30;99.90
18444;DHT22;9350;53.176;8.194;2023-02-22T08:28:19;9.30;99.90
18444;DHT22;9350;53.176;8.194;2023-02-22T08:30:47;9.40;99.90
18444;DHT22;9350;53.176;8.194;2023-02-22T08:33:15;9.40;99.90
18444;DHT22;9350;53.176;8.194;2023-02-22T08:35:44;9.40;99.90
18444;DHT22;9350;53.176;8.194;2023-02-22T08:38:16;9.40;99.90
18444;DHT22;9350;53.176;8.194;2023-02-22T08:40:43;9.40;99.90
18444;DHT22;9350;53.176;8.194;2023-02-22T08:43:11;9.40;99.90
18444;DHT22;9350;53.176;8.194;2023-02-22T08:45:39;9.50;99.90
18444;DHT22;9350;53.176;8.194;2023-02-22T08:48:06;9.50;99.90
18444;DHT22;9350;53.176;8.194;2023-02-22T08:50:33;9.50;99.90
18444;DHT22;9350;53.176;8.194;2023-02-22T08:53:02;9.50;99.90
18444;DHT22;9350;53.176;8.194;2023-02-22T08:55:32;9.50;99.90
18444;DHT22;9350;53.176;8.194;2023-02-22T08:58:00;9.60;99.90
18444;DHT22;9350;53.176;8.194;2023-02-22T09:00:30;9.60;99.90
18444;DHT22;9350;53.176;8.194;2023-02-22T09:02:57;9.60;99.90
18444;DHT22;9350;53.176;8.194;2023-02-22T09:05:24;9.60;99.90
18444;DHT22;9350;53.176;8.194;2023-02-22T09:07:51;9.60;99.90
18444;DHT22;9350;53.176;8.194;2023-02-22T09:10:21;9.70;99.90
18444;DHT22;9350;53.176;8.194;2023-02-22T09:12:49;9.60;99.90
18444;DHT22;9350;53.176;8.194;2023-02-22T09:15:16;9.70;99.90
18444;DHT22;9350;53.176;8.194;2023-02-22T09:17:44;9.70;99.90
18444;DHT22;9350;53.176;8.194;2023-02-22T09:20:11;9.70;99.90
18444;DHT22;9350;53.176;8.194;2023-02-22T09:22:39;9.70;99.90
18444;DHT22;9350;53.176;8.194;2023-02-22T09:25:06;9.80;99.90
18444;DHT22;9350;53.176;8.194;2023-02-22T09:27:33;9.80;99.90
18444;DHT22;9350;53.176;8.194;2023-02-22T09:29:59;10.00;99.90
18444;DHT22;9350;53.176;8.194;2023-02-22T09:32:26;9.80;99.90
18444;DHT22;9350;53.176;8.194;2023-02-22T09:34:54;10.00;99.90
18444;DHT22;9350;53.176;8.194;2023-02-22T09:37:22;9.80;99.90
18444;DHT22;9350;53.176;8.194;2023-02-22T09:39:48;9.80;99.90
18444;DHT22;9350;53.176;8.194;2023-02-22T09:42:21;9.80;99.90
18444;DHT22;9350;53.176;8.194;2023-02-22T09:44:55;9.80;99.90
18444;DHT22;9350;53.176;8.194;2023-02-22T09:47:37;9.80;99.90
18444;DHT22;9350;53.176;8.194;2023-02-22T09:50:09;10.00;99.90
18444;DHT22;9350;53.176;8.194;2023-02-22T09:52:47;10.00;99.90
18444;DHT22;9350;53.176;8.194;2023-02-22T09:55:29;9.90;99.90
18444;DHT22;9350;53.176;8.194;2023-02-22T09:58:00;9.90;99.90
18444;DHT22;9350;53.176;8.194;2023-02-22T10:00:30;9.90;99.90
18444;DHT22;9350;53.176;8.194;2023-02-22T10:03:07;10.00;99.90
18444;DHT22;9350;53.176;8.194;2023-02-22T10:05:41;10.00;99.90
18444;DHT22;9350;53.176;8.194;2023-02-22T10:08:11;10.10;99.90
18444;DHT22;9350;53.176;8.194;2023-02-22T10:10:41;10.10;99.90
18444;DHT22;9350;53.176;8.194;2023-02-22T10:13:16;10.20;99.90
18444;DHT22;9350;53.176;8.194;2023-02-22T10:15:50;10.20;99.90
18444;DHT22;9350;53.176;8.194;2023-02-22T10:18:46;10.10;99.90
18444;DHT22;9350;53.176;8.194;2023-02-22T10:21:40;10.20;99.90
18444;DHT22;9350;53.176;8.194;2023-02-22T10:24:20;10.30;99.90
18444;DHT22;9350;53.176;8.194;2023-02-22T10:26:51;10.40;99.90
18444;DHT22;9350;53.176;8.194;2023-02-22T10:29:27;10.40;99.90
18444;DHT22;9350;53.176;8.194;2023-02-22T10:31:57;10.30;99.90
18444;DHT22;9350;53.176;8.194;2023-02-22T10:34:26;10.40;99.90
18444;DHT22;9350;53.176;8.194;2023-02-22T10:36:57;10.40;99.90
18444;DHT22;9350;53.176;8.194;2023-02-22T10:39:28;10.40;99.90
18444;DHT22;9350;53.176;8.194;2023-02-22T10:41:57;10.40;99.90
18444;DHT22;9350;53.176;8.194;2023-02-22T10:44:30;10.50;99.90
18444;DHT22;9350;53.176;8.194;2023-02-22T10:46:58;10.50;99.90
18444;DHT22;9350;53.176;8.194;2023-02-22T10:49:29;10.50;99.90
18444;DHT22;9350;53.176;8.194;2023-02-22T10:52:05;10.60;99.90
18444;DHT22;9350;53.176;8.194;2023-02-22T10:54:39;10.60;99.90
18444;DHT22;9350;53.176;8.194;2023-02-22T10:57:07;10.60;99.90
18444;DHT22;9350;53.176;8.194;2023-02-22T10:59:35;10.70;99.90
18444;DHT22;9350;53.176;8.194;2023-02-22T11:02:15;10.70;99.90
18444;DHT22;9350;53.176;8.194;2023-02-22T11:04:46;10.70;99.90
18444;DHT22;9350;53.176;8.194;2023-02-22T11:07:24;10.80;99.90
18444;DHT22;9350;53.176;8.194;2023-02-22T11:09:53;10.80;99.90
18444;DHT22;9350;53.176;8.194;2023-02-22T11:12:26;10.90;99.90
18444;DHT22;9350;53.176;8.194;2023-02-22T11:14:54;10.80;99.90
18444;DHT22;9350;53.176;8.194;2023-02-22T11:17:31;10.90;99.90
18444;DHT22;9350;53.176;8.194;2023-02-22T11:19:59;10.90;99.90
18444;DHT22;9350;53.176;8.194;2023-02-22T11:22:30;10.90;99.90
18444;DHT22;9350;53.176;8.194;2023-02-22T11:25:03;10.90;99.90
18444;DHT22;9350;53.176;8.194;2023-02-22T11:27:34;11.00;99.90
18444;DHT22;9350;53.176;8.194;2023-02-22T11:30:18;11.10;99.90
18444;DHT22;9350;53.176;8.194;2023-02-22T11:32:48;11.10;99.90
18444;DHT22;9350;53.176;8.194;2023-02-22T11:35:38;11.20;99.90
18444;DHT22;9350;53.176;8.194;2023-02-22T11:38:13;11.10;99.90
18444;DHT22;9350;53.176;8.194;2023-02-22T11:40:42;11.20;99.90
18444;DHT22;9350;53.176;8.194;2023-02-22T11:43:14;11.30;99.90
18444;DHT22;9350;53.176;8.194;2023-02-22T11:45:56;11.30;99.90
18444;DHT22;9350;53.176;8.194;2023-02-22T11:48:26;11.30;99.90
18444;DHT22;9350;53.176;8.194;2023-02-22T11:50:59;11.30;99.90
18444;DHT22;9350;53.176;8.194;2023-02-22T11:53:43;11.30;99.90
18444;DHT22;9350;53.176;8.194;2023-02-22T11:56:15;11.30;99.90
18444;DHT22;9350;53.176;8.194;2023-02-22T11:58:48;11.30;99.90
18444;DHT22;9350;53.176;8.194;2023-02-22T12:01:22;11.30;99.90
18444;DHT22;9350;53.176;8.194;2023-02-22T12:04:27;11.30;99.90
18444;DHT22;9350;53.176;8.194;2023-02-22T12:07:11;11.30;99.90
18444;DHT22;9350;53.176;8.194;2023-02-22T12:09:47;11.30;99.90
18444;DHT22;9350;53.176;8.194;2023-02-22T12:12:22;11.30;99.90
18444;DHT22;9350;53.176;8.194;2023-02-22T12:14:54;11.30;99.90
18444;DHT22;9350;53.176;8.194;2023-02-22T12:17:35;11.30;99.90
18444;DHT22;9350;53.176;8.194;2023-02-22T12:20:16;11.40;99.90
18444;DHT22;9350;53.176;8.194;2023-02-22T12:22:55;11.50;99.90
18444;DHT22;9350;53.176;8.194;2023-02-22T12:25:27;11.40;99.90
18444;DHT22;9350;53.176;8.194;2023-02-22T12:27:59;11.40;99.90
18444;DHT22;9350;53.176;8.194;2023-02-22T12:30:30;11.50;99.90
18444;DHT22;9350;53.176;8.194;2023-02-22T12:33:03;11.50;99.90
18444;DHT22;9350;53.176;8.194;2023-02-22T12:35:33;11.50;99.90
18444;DHT22;9350;53.176;8.194;2023-02-22T12:38:07;11.60;99.90
18444;DHT22;9350;53.176;8.194;2023-02-22T12:40:44;11.70;99.90
18444;DHT22;9350;53.176;8.194;2023-02-22T12:43:18;11.60;99.90
18444;DHT22;9350;53.176;8.194;2023-02-22T12:45:49;11.60;99.90
18444;DHT22;9350;53.176;8.194;2023-02-22T12:48:28;11.60;99.90
18444;DHT22;9350;53.176;8.194;2023-02-22T12:50:59;11.60;99.90
18444;DHT22;9350;53.176;8.194;2023-02-22T12:53:30;11.60;99.90
18444;DHT22;9350;53.176;8.194;2023-02-22T12:56:11;11.60;99.90
18444;DHT22;9350;53.176;8.194;2023-02-22T12:58:45;11.70;99.90
18444;DHT22;9350;53.176;8.194;2023-02-22T13:01:18;11.60;99.90
18444;DHT22;9350;53.176;8.194;2023-02-22T13:03:46;11.70;99.90
18444;DHT22;9350;53.176;8.194;2023-02-22T13:06:31;11.70;99.90
18444;DHT22;9350;53.176;8.194;2023-02-22T13:09:19;11.70;99.90
18444;DHT22;9350;53.176;8.194;2023-02-22T13:11:58;11.70;99.90
18444;DHT22;9350;53.176;8.194;2023-02-22T13:14:36;11.70;99.90
18444;DHT22;9350;53.176;8.194;2023-02-22T13:17:14;11.60;99.90
18444;DHT22;9350;53.176;8.194;2023-02-22T13:19:50;11.70;99.90
18444;DHT22;9350;53.176;8.194;2023-02-22T13:22:21;11.60;99.90
18444;DHT22;9350;53.176;8.194;2023-02-22T13:24:58;11.60;99.90
18444;DHT22;9350;53.176;8.194;2023-02-22T13:27:34;11.70;99.90
18444;DHT22;9350;53.176;8.194;2023-02-22T13:30:03;11.70;99.90
18444;DHT22;9350;53.176;8.194;2023-02-22T13:32:40;11.70;99.90
18444;DHT22;9350;53.176;8.194;2023-02-22T13:35:22;11.70;99.90
18444;DHT22;9350;53.176;8.194;2023-02-22T13:38:15;11.70;99.90
18444;DHT22;9350;53.176;8.194;2023-02-22T13:41:27;11.80;99.90
18444;DHT22;9350;53.176;8.194;2023-02-22T13:44:27;11.80;99.90
18444;DHT22;9350;53.176;8.194;2023-02-22T13:47:20;11.80;99.90
18444;DHT22;9350;53.176;8.194;2023-02-22T13:49:57;11.80;99.90
18444;DHT22;9350;53.176;8.194;2023-02-22T13:52:30;11.80;99.90
18444;DHT22;9350;53.176;8.194;2023-02-22T13:55:00;11.80;99.90
18444;DHT22;9350;53.176;8.194;2023-02-22T13:57:31;11.80;99.90
18444;DHT22;9350;53.176;8.194;2023-02-22T14:00:37;11.80;99.90
18444;DHT22;9350;53.176;8.194;2023-02-22T14:03:09;11.70;99.90
18444;DHT22;9350;53.176;8.194;2023-02-22T14:05:47;11.70;99.90
18444;DHT22;9350;53.176;8.194;2023-02-22T14:08:40;11.80;99.90
18444;DHT22;9350;53.176;8.194;2023-02-22T14:14:22;11.70;99.90
18444;DHT22;9350;53.176;8.194;2023-02-22T14:20:27;11.80;99.90
18444;DHT22;9350;53.176;8.194;2023-02-22T14:23:25;11.80;99.90
18444;DHT22;9350;53.176;8.194;2023-02-22T14:25:54;11.70;99.90
18444;DHT22;9350;53.176;8.194;2023-02-22T14:28:37;11.70;99.90
18444;DHT22;9350;53.176;8.194;2023-02-22T14:31:07;11.80;99.90
18444;DHT22;9350;53.176;8.194;2023-02-22T14:33:58;11.80;99.90
18444;DHT22;9350;53.176;8.194;2023-02-22T14:36:31;11.90;99.90
18444;DHT22;9350;53.176;8.194;2023-02-22T14:39:15;11.90;99.90
18444;DHT22;9350;53.176;8.194;2023-02-22T14:41:49;11.80;99.90
18444;DHT22;9350;53.176;8.194;2023-02-22T14:44:23;11.90;99.90
18444;DHT22;9350;53.176;8.194;2023-02-22T14:46:52;11.80;99.90
18444;DHT22;9350;53.176;8.194;2023-02-22T14:49:23;11.80;99.90
18444;DHT22;9350;53.176;8.194;2023-02-22T14:51:58;11.90;99.90
18444;DHT22;9350;53.176;8.194;2023-02-22T14:54:31;11.90;99.90
18444;DHT22;9350;53.176;8.194;2023-02-22T14:57:08;11.80;99.90
18444;DHT22;9350;53.176;8.194;2023-02-22T14:59:49;11.80;99.90
18444;DHT22;9350;53.176;8.194;2023-02-22T15:02:17;11.80;99.90
18444;DHT22;9350;53.176;8.194;2023-02-22T15:04:49;11.80;99.90
18444;DHT22;9350;53.176;8.194;2023-02-22T15:07:25;11.70;99.90
18444;DHT22;9350;53.176;8.194;2023-02-22T15:10:06;11.80;99.90
18444;DHT22;9350;53.176;8.194;2023-02-22T15:12:33;11.80;99.90
18444;DHT22;9350;53.176;8.194;2023-02-22T15:15:12;11.70;99.90
18444;DHT22;9350;53.176;8.194;2023-02-22T15:17:39;11.70;99.90
18444;DHT22;9350;53.176;8.194;2023-02-22T15:20:07;11.70;99.90
18444;DHT22;9350;53.176;8.194;2023-02-22T15:22:37;11.70;99.90
18444;DHT22;9350;53.176;8.194;2023-02-22T15:25:06;11.60;99.90
18444;DHT22;9350;53.176;8.194;2023-02-22T15:27:34;11.70;99.90
18444;DHT22;9350;53.176;8.194;2023-02-22T15:30:04;11.60;99.90
18444;DHT22;9350;53.176;8.194;2023-02-22T15:32:38;11.60;99.90
18444;DHT22;9350;53.176;8.194;2023-02-22T15:35:16;11.60;99.90
18444;DHT22;9350;53.176;8.194;2023-02-22T15:37:46;11.60;99.90
18444;DHT22;9350;53.176;8.194;2023-02-22T15:40:14;11.60;99.90
18444;DHT22;9350;53.176;8.194;2023-02-22T15:42:44;11.60;99.90
18444;DHT22;9350;53.176;8.194;2023-02-22T15:45:17;11.60;99.90
18444;DHT22;9350;53.176;8.194;2023-02-22T15:47:45;11.50;99.90
18444;DHT22;9350;53.176;8.194;2023-02-22T15:50:17;11.50;99.90
18444;DHT22;9350;53.176;8.194;2023-02-22T15:52:53;11.50;99.90
18444;DHT22;9350;53.176;8.194;2023-02-22T15:55:25;11.50;99.90
18444;DHT22;9350;53.176;8.194;2023-02-22T15:57:53;11.40;99.90
18444;DHT22;9350;53.176;8.194;2023-02-22T16:00:22;11.50;99.90
18444;DHT22;9350;53.176;8.194;2023-02-22T16:02:50;11.40;99.90
18444;DHT22;9350;53.176;8.194;2023-02-22T16:05:17;11.40;99.90
18444;DHT22;9350;53.176;8.194;2023-02-22T16:07:47;11.40;99.90
18444;DHT22;9350;53.176;8.194;2023-02-22T16:10:34;11.30;99.90
18444;DHT22;9350;53.176;8.194;2023-02-22T16:13:09;11.30;99.90
18444;DHT22;9350;53.176;8.194;2023-02-22T16:15:52;11.30;99.90
18444;DHT22;9350;53.176;8.194;2023-02-22T16:18:24;11.20;99.90
18444;DHT22;9350;53.176;8.194;2023-02-22T16:20:59;11.20;99.90
18444;DHT22;9350;53.176;8.194;2023-02-22T16:23:27;11.10;99.90
18444;DHT22;9350;53.176;8.194;2023-02-22T16:26:21;11.00;99.90
18444;DHT22;9350;53.176;8.194;2023-02-22T16:28:50;11.00;99.90
18444;DHT22;9350;53.176;8.194;2023-02-22T16:31:18;11.00;99.90
18444;DHT22;9350;53.176;8.194;2023-02-22T16:33:46;10.90;99.90